X  Tanca Dades meteorològiques de l'aviació METAR     LGRX Patras Araxos Agamemnon Airport
Temperatura
48°F Temperatura
25°F Rosada
40% Humitat



Vent
12 MPH
19 KM/H
5 M/S
10 NUS



90°
E
Condicions actuals

Parcialment ennuvolat Parcialment ennuvolat
Pressió 1029.92 (hPa) - 30.41 (inHg)
Visibilitat 6.2 (milla) - 10 (km)
Aeroport
Codi aeroport LGRX

Ubicació: Patras Araxos Agamemnon Airport
Distància: 108 (mi)

Metar:
LGRX 081120Z 09010KT 9999 FEW018 SCT070 09/M04 Q1030

Temps: 08-02-2023 11:20 EET